createdAt,value
2023-04-11T00:00:19.201Z,3.80
2023-04-11T00:01:19.185Z,3.80
2023-04-11T00:02:19.320Z,3.90
2023-04-11T00:03:19.345Z,3.80
2023-04-11T00:04:19.233Z,4.10
2023-04-11T00:05:19.144Z,3.80
2023-04-11T00:06:19.106Z,3.80
2023-04-11T00:07:19.102Z,3.30
2023-04-11T00:08:19.138Z,3.50
2023-04-11T00:09:19.084Z,3.90
2023-04-11T00:10:19.113Z,3.70
2023-04-11T00:11:19.111Z,3.50
2023-04-11T00:12:19.050Z,3.70
2023-04-11T00:13:19.077Z,3.90
2023-04-11T00:14:19.024Z,3.60
2023-04-11T00:15:19.109Z,3.60
2023-04-11T00:16:19.022Z,3.70
2023-04-11T00:17:19.053Z,3.40
2023-04-11T00:18:19.025Z,3.40
2023-04-11T00:19:18.978Z,3.60
2023-04-11T00:20:18.974Z,3.90
2023-04-11T00:21:18.987Z,3.70
2023-04-11T00:22:18.967Z,3.70
2023-04-11T00:23:18.974Z,3.90
2023-04-11T00:24:18.919Z,3.90
2023-04-11T00:25:18.921Z,3.80
2023-04-11T00:26:18.940Z,3.90
2023-04-11T00:27:21.371Z,4.00
2023-04-11T00:28:18.893Z,3.90
2023-04-11T00:29:18.911Z,3.70
2023-04-11T00:30:18.890Z,4.10
2023-04-11T00:31:18.877Z,3.70
2023-04-11T00:32:18.852Z,4.10
2023-04-11T00:33:18.907Z,4.40
2023-04-11T00:34:18.832Z,3.60
2023-04-11T00:35:18.894Z,3.90
2023-04-11T00:36:18.850Z,4.60
2023-04-11T00:37:18.788Z,4.30
2023-04-11T00:38:18.758Z,4.50
2023-04-11T00:39:18.794Z,3.90
2023-04-11T00:40:18.774Z,4.10
2023-04-11T00:41:18.747Z,4.20
2023-04-11T00:42:18.719Z,4.40
2023-04-11T00:43:18.738Z,4.30
2023-04-11T00:44:18.732Z,4.70
2023-04-11T00:45:18.669Z,4.30
2023-04-11T00:46:18.791Z,4.20
2023-04-11T00:47:18.681Z,4.20
2023-04-11T00:48:18.634Z,4.00
2023-04-11T00:49:18.710Z,4.30
2023-04-11T00:50:18.628Z,4.30
2023-04-11T00:51:18.596Z,4.40
2023-04-11T00:52:18.607Z,4.60
2023-04-11T00:53:18.591Z,4.80
2023-04-11T00:54:18.572Z,4.70
2023-04-11T00:55:18.712Z,4.50
2023-04-11T00:56:18.639Z,4.30
2023-04-11T00:57:18.584Z,4.50
2023-04-11T00:58:18.533Z,4.00
2023-04-11T00:59:18.527Z,4.50
2023-04-11T01:00:18.509Z,4.40
2023-04-11T01:01:18.557Z,4.40
2023-04-11T01:02:18.633Z,4.20
2023-04-11T01:03:18.777Z,4.00
2023-04-11T01:04:18.542Z,5.00
2023-04-11T01:05:18.469Z,4.80
2023-04-11T01:06:18.486Z,5.00
2023-04-11T01:07:18.446Z,5.00
2023-04-11T01:08:18.458Z,4.90
2023-04-11T01:09:18.411Z,5.00
2023-04-11T01:10:18.408Z,4.70
2023-04-11T01:11:18.417Z,5.00
2023-04-11T01:12:18.384Z,5.00
2023-04-11T01:13:18.402Z,4.70
2023-04-11T01:14:18.358Z,4.90
2023-04-11T01:15:18.337Z,5.10
2023-04-11T01:16:18.418Z,5.30
2023-04-11T01:17:18.380Z,5.30
2023-04-11T01:18:18.316Z,5.60
2023-04-11T01:19:18.351Z,5.90
2023-04-11T01:20:18.281Z,5.50
2023-04-11T01:21:18.310Z,5.20
2023-04-11T01:22:18.282Z,5.00
2023-04-11T01:23:18.274Z,4.90
2023-04-11T01:24:18.348Z,5.50
2023-04-11T01:25:18.289Z,5.50
2023-04-11T01:26:18.286Z,4.90
2023-04-11T01:27:18.226Z,4.70
2023-04-11T01:28:18.213Z,4.80
2023-04-11T01:29:18.205Z,4.90
2023-04-11T01:30:18.226Z,5.40
2023-04-11T01:31:18.221Z,4.80
2023-04-11T01:32:18.237Z,4.50
2023-04-11T01:33:18.227Z,4.50
2023-04-11T01:34:18.131Z,4.40
2023-04-11T01:35:18.167Z,5.00
2023-04-11T01:36:18.102Z,4.90
2023-04-11T01:37:18.172Z,4.40
2023-04-11T01:38:18.097Z,4.80
2023-04-11T01:39:18.065Z,4.40
2023-04-11T01:40:18.087Z,4.80
2023-04-11T01:41:18.053Z,4.90
2023-04-11T01:42:18.073Z,4.30
2023-04-11T01:43:18.049Z,4.60
2023-04-11T01:44:18.030Z,4.60
2023-04-11T01:45:18.010Z,4.50
2023-04-11T01:46:18.009Z,4.60
2023-04-11T01:47:18.009Z,4.90
2023-04-11T01:48:18.109Z,4.90
2023-04-11T01:49:17.995Z,5.10
2023-04-11T01:50:17.966Z,4.70
2023-04-11T01:51:17.947Z,4.70
2023-04-11T01:52:17.952Z,4.90
2023-04-11T01:53:17.938Z,4.80
2023-04-11T01:54:18.004Z,4.80
2023-04-11T01:55:17.901Z,4.50
2023-04-11T01:56:17.912Z,5.00
2023-04-11T01:57:18.011Z,4.70
2023-04-11T01:58:17.878Z,5.20
2023-04-11T01:59:17.865Z,4.90
2023-04-11T02:00:17.895Z,4.80
2023-04-11T02:01:17.865Z,4.40
2023-04-11T02:02:18.013Z,5.10
2023-04-11T02:03:17.936Z,4.90
2023-04-11T02:04:17.915Z,5.10
2023-04-11T02:05:17.830Z,4.40
2023-04-11T02:06:17.773Z,4.40
2023-04-11T02:07:17.765Z,4.70
2023-04-11T02:08:17.750Z,5.00
2023-04-11T02:09:17.762Z,4.70
2023-04-11T02:10:17.762Z,4.70
2023-04-11T02:11:17.773Z,4.70
2023-04-11T02:12:17.750Z,5.00
2023-04-11T02:13:17.700Z,4.90
2023-04-11T02:14:17.689Z,4.80
2023-04-11T02:15:17.689Z,5.00
2023-04-11T02:16:18.205Z,5.10
2023-04-11T02:17:17.709Z,5.10
2023-04-11T02:18:17.650Z,4.50
2023-04-11T02:19:17.632Z,4.60
2023-04-11T02:20:17.638Z,4.60
2023-04-11T02:21:17.596Z,4.70
2023-04-11T02:22:17.646Z,4.80
2023-04-11T02:23:17.580Z,4.70
2023-04-11T02:24:17.562Z,4.30
2023-04-11T02:25:17.565Z,5.20
2023-04-11T02:26:17.590Z,4.30
2023-04-11T02:27:17.611Z,5.00
2023-04-11T02:28:17.550Z,5.10
2023-04-11T02:29:17.623Z,4.80
2023-04-11T02:30:17.497Z,5.10
2023-04-11T02:31:17.526Z,4.60
2023-04-11T02:32:17.586Z,4.70
2023-04-11T02:33:17.471Z,4.70
2023-04-11T02:34:17.474Z,4.50
2023-04-11T02:35:17.476Z,4.90
2023-04-11T02:36:17.443Z,4.70
2023-04-11T02:37:17.401Z,4.80
2023-04-11T02:38:17.414Z,4.80
2023-04-11T02:39:17.468Z,4.90
2023-04-11T02:40:17.450Z,4.70
2023-04-11T02:41:17.395Z,5.00
2023-04-11T02:42:17.384Z,4.70
2023-04-11T02:43:17.350Z,4.80
2023-04-11T02:44:17.359Z,4.80
2023-04-11T02:45:17.347Z,4.70
2023-04-11T02:46:17.457Z,5.20
2023-04-11T02:47:17.325Z,5.20
2023-04-11T02:48:17.276Z,5.10
2023-04-11T02:49:17.318Z,5.00
2023-04-11T02:50:17.271Z,5.00
2023-04-11T02:51:17.289Z,5.10
2023-04-11T02:52:17.239Z,4.90
2023-04-11T02:53:17.248Z,4.90
2023-04-11T02:54:17.254Z,4.90
2023-04-11T02:55:17.260Z,5.20
2023-04-11T02:56:17.215Z,5.00
2023-04-11T02:57:17.218Z,5.30
2023-04-11T02:58:17.218Z,5.00
2023-04-11T02:59:17.161Z,5.20
2023-04-11T03:00:17.196Z,5.10
2023-04-11T03:01:17.250Z,4.80
2023-04-11T03:02:17.300Z,4.90
2023-04-11T03:03:17.465Z,5.20
2023-04-11T03:04:17.198Z,4.90
2023-04-11T03:05:17.095Z,4.90
2023-04-11T03:06:17.075Z,5.10
2023-04-11T03:07:17.140Z,5.00
2023-04-11T03:08:17.100Z,5.00
2023-04-11T03:09:17.086Z,4.90
2023-04-11T03:10:17.096Z,4.80
2023-04-11T03:11:17.053Z,4.90
2023-04-11T03:12:17.054Z,4.70
2023-04-11T03:13:17.015Z,5.00
2023-04-11T03:14:16.994Z,5.40
2023-04-11T03:15:17.008Z,4.80
2023-04-11T03:16:17.032Z,5.30
2023-04-11T03:17:16.955Z,5.00
2023-04-11T03:18:16.987Z,4.80
2023-04-11T03:19:16.920Z,5.10
2023-04-11T03:20:16.936Z,5.00
2023-04-11T03:21:16.975Z,5.00
2023-04-11T03:22:16.932Z,5.20
2023-04-11T03:23:17.036Z,4.80
2023-04-11T03:24:16.909Z,5.40
2023-04-11T03:25:16.862Z,5.30
2023-04-11T03:26:16.912Z,5.10
2023-04-11T03:27:16.867Z,5.30
2023-04-11T03:28:16.887Z,5.00
2023-04-11T03:29:16.840Z,4.70
2023-04-11T03:30:16.843Z,5.50
2023-04-11T03:31:16.932Z,5.00
2023-04-11T03:32:16.849Z,5.40
2023-04-11T03:33:16.809Z,4.90
2023-04-11T03:34:16.832Z,5.50
2023-04-11T03:35:16.757Z,4.80
2023-04-11T03:36:16.870Z,5.00
2023-04-11T03:37:16.738Z,4.70
2023-04-11T03:38:16.782Z,4.70
2023-04-11T03:39:16.748Z,5.20
2023-04-11T03:40:16.719Z,5.20
2023-04-11T03:41:16.762Z,5.50
2023-04-11T03:42:16.684Z,5.30
2023-04-11T03:43:16.674Z,4.90
2023-04-11T03:44:16.648Z,5.40
2023-04-11T03:45:16.658Z,4.80
2023-04-11T03:46:16.708Z,5.20
2023-04-11T03:47:16.758Z,5.10
2023-04-11T03:48:18.182Z,4.60
2023-04-11T03:49:16.631Z,5.30
2023-04-11T03:50:16.617Z,5.20
2023-04-11T03:51:16.635Z,5.20
2023-04-11T03:52:16.579Z,5.30
2023-04-11T03:53:16.585Z,5.10
2023-04-11T03:54:16.565Z,5.10
2023-04-11T03:55:16.695Z,5.60
2023-04-11T03:56:16.558Z,5.10
2023-04-11T03:57:16.515Z,5.30
2023-04-11T03:58:16.578Z,5.10
2023-04-11T03:59:16.480Z,5.20
2023-04-11T04:00:16.499Z,5.30
2023-04-11T04:01:16.554Z,4.90
2023-04-11T04:02:16.494Z,4.80
2023-04-11T04:03:16.748Z,5.40
2023-04-11T04:04:16.543Z,5.10
2023-04-11T04:05:16.428Z,5.40
2023-04-11T04:06:16.399Z,5.30
2023-04-11T04:07:16.424Z,5.00
2023-04-11T04:08:16.382Z,5.00
2023-04-11T04:09:16.363Z,4.90
2023-04-11T04:10:16.423Z,5.10
2023-04-11T04:11:16.358Z,4.90
2023-04-11T04:12:16.369Z,5.00
2023-04-11T04:13:16.379Z,5.10
2023-04-11T04:14:16.333Z,5.20
2023-04-11T04:15:16.408Z,5.10
2023-04-11T04:16:16.386Z,5.00
2023-04-11T04:17:16.338Z,5.10
2023-04-11T04:18:16.291Z,4.80
2023-04-11T04:19:16.281Z,4.80
2023-04-11T04:20:16.252Z,4.90
2023-04-11T04:21:16.247Z,5.30
2023-04-11T04:22:16.285Z,5.10
2023-04-11T04:23:16.259Z,4.90
2023-04-11T04:24:16.231Z,4.90
2023-04-11T04:25:16.282Z,4.80
2023-04-11T04:26:16.250Z,4.50
2023-04-11T04:27:16.178Z,4.40
2023-04-11T04:28:16.162Z,3.90
2023-04-11T04:29:16.168Z,4.30
2023-04-11T04:30:16.167Z,3.90
2023-04-11T04:31:16.179Z,4.00
2023-04-11T04:32:16.105Z,4.50
2023-04-11T04:33:16.125Z,4.60
2023-04-11T04:34:16.108Z,4.60
2023-04-11T04:35:16.075Z,4.40
2023-04-11T04:36:16.063Z,3.90
2023-04-11T04:37:16.046Z,3.60
2023-04-11T04:38:16.053Z,4.00
2023-04-11T04:39:16.059Z,3.60
2023-04-11T04:40:16.104Z,3.50
2023-04-11T04:41:16.053Z,3.90
2023-04-11T04:42:16.060Z,3.50
2023-04-11T04:43:15.980Z,3.70
2023-04-11T04:44:15.972Z,3.90
2023-04-11T04:45:15.990Z,3.60
2023-04-11T04:46:16.048Z,3.80
2023-04-11T04:47:15.968Z,3.20
2023-04-11T04:48:15.919Z,3.30
2023-04-11T04:49:15.921Z,2.90
2023-04-11T04:50:15.976Z,3.20
2023-04-11T04:51:15.901Z,3.00
2023-04-11T04:52:15.935Z,3.00
2023-04-11T04:53:15.891Z,3.10
2023-04-11T04:54:15.887Z,2.70
2023-04-11T04:55:15.911Z,3.00
2023-04-11T04:56:15.860Z,2.90
2023-04-11T04:57:15.848Z,3.10
2023-04-11T04:58:15.833Z,2.80
2023-04-11T04:59:15.822Z,3.10
2023-04-11T05:00:15.816Z,2.70
2023-04-11T05:01:15.869Z,3.00
2023-04-11T05:02:15.825Z,3.00
2023-04-11T05:03:15.842Z,2.70
2023-04-11T05:04:15.896Z,2.90
2023-04-11T05:05:15.787Z,2.80
2023-04-11T05:06:15.949Z,2.60
2023-04-11T05:07:15.717Z,2.50
2023-04-11T05:08:15.723Z,3.00
2023-04-11T05:09:15.702Z,3.10
2023-04-11T05:10:15.722Z,2.90
2023-04-11T05:11:15.699Z,3.40
2023-04-11T05:12:15.651Z,3.10
2023-04-11T05:13:15.654Z,3.10
2023-04-11T05:14:15.648Z,3.40
2023-04-11T05:15:15.647Z,3.50
2023-04-11T05:16:15.668Z,3.20
2023-04-11T05:17:15.602Z,3.10
2023-04-11T05:18:15.630Z,2.60
2023-04-11T05:19:15.597Z,2.60
2023-04-11T05:20:15.573Z,2.10
2023-04-11T05:21:15.601Z,2.10
2023-04-11T05:22:15.551Z,2.30
2023-04-11T05:23:15.578Z,2.40
2023-04-11T05:24:15.537Z,1.80
2023-04-11T05:25:15.505Z,1.90
2023-04-11T05:26:15.519Z,1.80
2023-04-11T05:27:15.583Z,1.60
2023-04-11T05:28:15.477Z,1.70
2023-04-11T05:29:15.461Z,1.60
2023-04-11T05:30:15.472Z,1.60
2023-04-11T05:31:15.499Z,1.70
2023-04-11T05:32:15.497Z,1.80
2023-04-11T05:33:15.410Z,1.60
2023-04-11T05:34:15.427Z,1.60
2023-04-11T05:35:15.438Z,1.40
2023-04-11T05:36:15.497Z,1.40
2023-04-11T05:37:15.434Z,1.30
2023-04-11T05:38:15.393Z,1.30
2023-04-11T05:39:15.390Z,1.40
2023-04-11T05:40:15.348Z,1.40
2023-04-11T05:41:15.340Z,1.40
2023-04-11T05:42:15.342Z,1.40
2023-04-11T05:43:15.334Z,1.40
2023-04-11T05:44:15.328Z,1.60
2023-04-11T05:45:15.303Z,1.20
2023-04-11T05:46:15.350Z,1.50
2023-04-11T05:47:15.287Z,1.40
2023-04-11T05:48:16.154Z,1.20
2023-04-11T05:49:15.256Z,1.60
2023-04-11T05:50:15.266Z,1.60
2023-04-11T05:51:15.235Z,1.40
2023-04-11T05:52:15.219Z,1.50
2023-04-11T05:53:15.243Z,1.60
2023-04-11T05:54:15.191Z,1.40
2023-04-11T05:55:15.222Z,1.40
2023-04-11T05:56:15.200Z,1.30
2023-04-11T05:57:15.163Z,1.40
2023-04-11T05:58:15.162Z,1.60
2023-04-11T05:59:15.138Z,1.50
2023-04-11T06:00:15.170Z,1.50
2023-04-11T06:01:15.138Z,1.20
2023-04-11T06:02:15.217Z,1.50
2023-04-11T06:03:15.189Z,1.50
2023-04-11T06:04:15.146Z,1.50
2023-04-11T06:05:15.131Z,1.00
2023-04-11T06:06:15.080Z,1.10
2023-04-11T06:07:15.064Z,1.40
2023-04-11T06:08:15.042Z,1.20
2023-04-11T06:09:15.033Z,1.40
2023-04-11T06:10:15.036Z,1.20
2023-04-11T06:11:15.026Z,1.30
2023-04-11T06:12:15.015Z,1.20
2023-04-11T06:13:14.984Z,1.40
2023-04-11T06:14:14.981Z,1.20
2023-04-11T06:15:14.947Z,0.90
2023-04-11T06:16:15.053Z,1.20
2023-04-11T06:17:14.942Z,1.30
2023-04-11T06:18:14.955Z,1.10
2023-04-11T06:19:14.908Z,1.10
2023-04-11T06:20:14.920Z,1.00
2023-04-11T06:21:14.952Z,1.10
2023-04-11T06:22:14.952Z,1.30
2023-04-11T06:23:14.877Z,0.90
2023-04-11T06:24:14.836Z,1.20
2023-04-11T06:25:14.873Z,1.10
2023-04-11T06:26:14.876Z,1.00
2023-04-11T06:27:14.822Z,1.00
2023-04-11T06:28:14.826Z,1.20
2023-04-11T06:29:14.801Z,1.00
2023-04-11T06:30:14.783Z,1.10
2023-04-11T06:31:14.809Z,0.70
2023-04-11T06:32:14.814Z,0.90
2023-04-11T06:33:14.747Z,1.20
2023-04-11T06:34:14.783Z,1.00
2023-04-11T06:35:14.730Z,1.10
2023-04-11T06:36:14.769Z,1.00
2023-04-11T06:37:14.710Z,1.00
2023-04-11T06:38:14.692Z,0.90
2023-04-11T06:39:14.712Z,0.80
2023-04-11T06:40:14.697Z,1.30
2023-04-11T06:41:14.681Z,1.30
2023-04-11T06:42:14.658Z,1.10
2023-04-11T06:43:14.646Z,1.10
2023-04-11T06:44:14.639Z,1.00
2023-04-11T06:45:14.669Z,1.10
2023-04-11T06:46:14.666Z,1.00
2023-04-11T06:47:14.592Z,1.10
2023-04-11T06:48:14.569Z,1.00
2023-04-11T06:49:14.616Z,1.10
2023-04-11T06:50:14.576Z,1.50
2023-04-11T06:51:14.593Z,1.20
2023-04-11T06:52:14.531Z,1.60
2023-04-11T06:53:14.557Z,1.10
2023-04-11T06:54:14.518Z,1.00
2023-04-11T06:55:14.533Z,1.10
2023-04-11T06:56:14.520Z,1.00
2023-04-11T06:57:14.495Z,1.00
2023-04-11T06:58:14.470Z,1.20
2023-04-11T06:59:14.506Z,1.30
2023-04-11T07:00:14.525Z,1.20
2023-04-11T07:01:14.459Z,1.50
2023-04-11T07:02:14.505Z,1.20
2023-04-11T07:03:14.606Z,1.50
2023-04-11T07:04:14.442Z,1.60
2023-04-11T07:05:14.426Z,1.80
2023-04-11T07:06:14.371Z,1.60
2023-04-11T07:07:14.386Z,1.50
2023-04-11T07:08:14.357Z,1.30
2023-04-11T07:09:14.363Z,1.30
2023-04-11T07:10:14.355Z,1.20
2023-04-11T07:11:14.326Z,1.40
2023-04-11T07:12:14.306Z,1.10
2023-04-11T07:13:14.353Z,1.30
2023-04-11T07:14:14.290Z,1.50
2023-04-11T07:15:14.329Z,1.10
2023-04-11T07:16:14.330Z,1.00
2023-04-11T07:17:14.297Z,1.20
2023-04-11T07:18:14.332Z,1.40
2023-04-11T07:19:14.232Z,1.20
2023-04-11T07:20:14.260Z,1.20
2023-04-11T07:21:14.217Z,1.10
2023-04-11T07:22:14.209Z,1.30
2023-04-11T07:23:14.233Z,1.00
2023-04-11T07:24:14.175Z,1.30
2023-04-11T07:25:14.234Z,1.20
2023-04-11T07:26:14.162Z,1.10
2023-04-11T07:27:14.254Z,0.90
2023-04-11T07:28:14.115Z,0.90
2023-04-11T07:29:14.832Z,1.00
2023-04-11T07:30:14.149Z,1.40
2023-04-11T07:31:14.140Z,1.20
2023-04-11T07:32:14.094Z,1.20
2023-04-11T07:33:14.154Z,1.20
2023-04-11T07:34:14.096Z,0.80
2023-04-11T07:35:14.076Z,1.20
2023-04-11T07:36:14.070Z,1.00
2023-04-11T07:37:14.041Z,1.30
2023-04-11T07:38:14.013Z,1.10
2023-04-11T07:39:14.038Z,0.90
2023-04-11T07:40:14.005Z,1.10
2023-04-11T07:41:13.986Z,1.20
2023-04-11T07:42:13.959Z,0.90
2023-04-11T07:43:13.975Z,1.00
2023-04-11T07:44:13.978Z,1.40
2023-04-11T07:45:13.966Z,1.30
2023-04-11T07:46:14.027Z,1.70
2023-04-11T07:47:13.940Z,1.60
2023-04-11T07:48:13.902Z,1.20
2023-04-11T07:49:13.907Z,1.20
2023-04-11T07:50:13.918Z,1.30
2023-04-11T07:51:13.863Z,1.30
2023-04-11T07:52:14.437Z,1.00
2023-04-11T07:53:13.841Z,1.30
2023-04-11T07:54:13.836Z,1.20
2023-04-11T07:55:13.813Z,1.30
2023-04-11T07:56:13.855Z,1.20
2023-04-11T07:57:13.797Z,1.30
2023-04-11T07:58:13.780Z,1.20
2023-04-11T07:59:13.820Z,1.20
2023-04-11T08:00:13.776Z,1.00
2023-04-11T08:01:13.794Z,1.50
2023-04-11T08:02:13.874Z,1.50
2023-04-11T08:03:13.998Z,3.10
2023-04-11T08:04:14.134Z,1.20
2023-04-11T08:05:13.754Z,0.90
2023-04-11T08:06:13.674Z,1.40
2023-04-11T08:07:13.712Z,1.20
2023-04-11T08:08:13.709Z,1.10
2023-04-11T08:09:13.751Z,1.30
2023-04-11T08:10:13.648Z,1.20
2023-04-11T08:11:13.629Z,1.20
2023-04-11T08:12:13.652Z,1.10
2023-04-11T08:13:13.621Z,1.20
2023-04-11T08:14:13.594Z,1.20
2023-04-11T08:15:13.643Z,1.60
2023-04-11T08:16:13.644Z,1.30
2023-04-11T08:17:25.168Z,1.10
2023-04-11T08:18:14.572Z,1.10
2023-04-11T08:19:13.532Z,1.00
2023-04-11T08:20:13.575Z,1.00
2023-04-11T08:21:13.585Z,1.30
2023-04-11T08:22:13.509Z,0.90
2023-04-11T08:23:13.525Z,1.00
2023-04-11T08:24:14.600Z,1.10
2023-04-11T08:25:13.482Z,1.10
2023-04-11T08:26:13.480Z,1.30
2023-04-11T08:27:13.460Z,1.40
2023-04-11T08:28:13.455Z,1.10
2023-04-11T08:29:13.450Z,0.90
2023-04-11T08:30:13.470Z,1.20
2023-04-11T08:31:13.748Z,1.10
2023-04-11T08:32:13.535Z,1.10
2023-04-11T08:33:13.420Z,1.40
2023-04-11T08:34:13.392Z,1.50
2023-04-11T08:35:13.364Z,1.20
2023-04-11T08:36:13.486Z,1.20
2023-04-11T08:37:13.363Z,1.10
2023-04-11T08:38:13.372Z,1.10
2023-04-11T08:39:13.321Z,1.20
2023-04-11T08:40:13.297Z,1.40
2023-04-11T08:41:13.359Z,1.30
2023-04-11T08:42:13.312Z,1.40
2023-04-11T08:43:13.277Z,1.20
2023-04-11T08:44:13.285Z,1.00
2023-04-11T08:45:13.244Z,1.30
2023-04-11T08:46:13.361Z,1.10
2023-04-11T08:47:13.257Z,1.20
2023-04-11T08:48:13.252Z,1.30
2023-04-11T08:49:13.214Z,1.00
2023-04-11T08:50:13.197Z,1.20
2023-04-11T08:51:13.221Z,1.10
2023-04-11T08:52:13.213Z,1.10
2023-04-11T08:53:13.191Z,1.20
2023-04-11T08:54:13.159Z,0.90
2023-04-11T08:55:13.133Z,1.10
2023-04-11T08:56:13.166Z,1.10
2023-04-11T08:57:13.111Z,1.00
2023-04-11T08:58:13.145Z,1.00
2023-04-11T08:59:13.245Z,1.10
2023-04-11T09:00:13.072Z,1.00
2023-04-11T09:01:13.128Z,0.80
2023-04-11T09:02:13.121Z,0.90
2023-04-11T09:03:13.213Z,1.20
2023-04-11T09:04:13.068Z,1.10
2023-04-11T09:05:13.185Z,1.40
2023-04-11T09:06:13.034Z,0.90
2023-04-11T09:07:13.034Z,0.80
2023-04-11T09:08:13.011Z,1.10
2023-04-11T09:09:13.001Z,1.10
2023-04-11T09:10:12.990Z,0.90
2023-04-11T09:11:12.971Z,1.00
2023-04-11T09:12:12.971Z,1.20
2023-04-11T09:13:12.949Z,1.30
2023-04-11T09:14:13.006Z,1.10
2023-04-11T09:15:12.952Z,1.10
2023-04-11T09:16:12.940Z,1.00
2023-04-11T09:17:12.909Z,0.90
2023-04-11T09:18:12.949Z,1.10
2023-04-11T09:19:12.948Z,1.20
2023-04-11T09:20:12.895Z,1.00
2023-04-11T09:21:12.868Z,1.00
2023-04-11T09:22:12.873Z,1.20
2023-04-11T09:23:12.862Z,1.10
2023-04-11T09:24:12.955Z,1.20
2023-04-11T09:25:12.821Z,0.80
2023-04-11T09:26:12.883Z,1.30
2023-04-11T09:27:12.801Z,1.10
2023-04-11T09:28:12.796Z,1.20
2023-04-11T09:29:12.763Z,1.20
2023-04-11T09:30:12.782Z,1.40
2023-04-11T09:31:13.143Z,1.10
2023-04-11T09:32:12.743Z,1.40
2023-04-11T09:33:12.731Z,1.10
2023-04-11T09:34:12.755Z,1.10
2023-04-11T09:35:12.752Z,1.20
2023-04-11T09:36:12.766Z,1.50
2023-04-11T09:37:12.716Z,1.30
2023-04-11T09:38:12.737Z,1.30
2023-04-11T09:39:12.697Z,1.70
2023-04-11T09:40:12.675Z,1.70
2023-04-11T09:41:12.653Z,1.40
2023-04-11T09:42:12.658Z,1.30
2023-04-11T09:43:12.662Z,1.30
2023-04-11T09:44:12.642Z,1.30
2023-04-11T09:45:12.604Z,1.10
2023-04-11T09:46:12.610Z,1.40
2023-04-11T09:47:12.576Z,1.30
2023-04-11T09:48:12.739Z,1.10
2023-04-11T09:49:12.553Z,1.10
2023-04-11T09:50:12.595Z,1.10
2023-04-11T09:51:15.986Z,1.30
2023-04-11T09:52:13.510Z,1.30
2023-04-11T09:53:12.519Z,1.30
2023-04-11T09:54:12.529Z,0.70
2023-04-11T09:55:12.507Z,0.50
2023-04-11T09:56:12.497Z,0.70
2023-04-11T09:57:12.489Z,0.50
2023-04-11T09:58:12.460Z,0.70
2023-04-11T09:59:12.478Z,0.90
2023-04-11T10:00:12.473Z,0.70
2023-04-11T10:01:12.430Z,1.00
2023-04-11T10:02:12.603Z,0.80
2023-04-11T10:03:12.458Z,0.80
2023-04-11T10:04:12.444Z,0.90
2023-04-11T10:05:12.404Z,0.70
2023-04-11T10:06:12.407Z,0.70
2023-04-11T10:07:12.369Z,0.80
2023-04-11T10:08:12.355Z,0.80
2023-04-11T10:09:12.367Z,0.80
2023-04-11T10:10:12.313Z,0.70
2023-04-11T10:11:12.350Z,0.50
2023-04-11T10:12:12.337Z,0.60
2023-04-11T10:13:12.270Z,0.60
2023-04-11T10:14:12.313Z,0.80
2023-04-11T10:15:12.483Z,0.50
2023-04-11T10:16:12.338Z,0.40
2023-04-11T10:17:12.389Z,0.50
2023-04-11T10:18:12.556Z,0.60
2023-04-11T10:19:12.243Z,0.40
2023-04-11T10:20:12.205Z,0.70
2023-04-11T10:21:12.206Z,0.60
2023-04-11T10:22:12.168Z,0.60
2023-04-11T10:23:12.224Z,0.70
2023-04-11T10:24:14.831Z,0.50
2023-04-11T10:25:12.179Z,0.50
2023-04-11T10:26:51.281Z,0.70
2023-04-11T10:27:48.747Z,0.60
2023-04-11T10:28:48.671Z,0.80
2023-04-11T10:29:51.194Z,0.50
2023-04-11T10:30:48.643Z,0.50
2023-04-11T10:31:48.736Z,0.50
2023-04-11T10:32:48.642Z,0.70
2023-04-11T10:33:48.620Z,0.50
2023-04-11T10:34:48.605Z,1.00
2023-04-11T10:35:48.608Z,0.60
2023-04-11T10:36:48.613Z,0.80
2023-04-11T10:37:48.571Z,0.70
2023-04-11T10:38:48.939Z,0.60
2023-04-11T10:39:48.581Z,0.70
2023-04-11T10:40:48.543Z,0.60
2023-04-11T10:41:48.551Z,0.80
2023-04-11T10:42:48.524Z,0.60
2023-04-11T10:43:48.518Z,0.90
2023-04-11T10:44:48.484Z,0.50
2023-04-11T10:45:48.462Z,0.80
2023-04-11T10:46:48.572Z,0.60
2023-04-11T10:47:48.522Z,0.60
2023-04-11T10:48:48.514Z,0.60
2023-04-11T10:49:48.432Z,0.70
2023-04-11T10:50:48.405Z,0.60
2023-04-11T10:51:48.441Z,0.60
2023-04-11T10:52:48.392Z,0.70
2023-04-11T10:53:48.374Z,0.70
2023-04-11T10:54:48.414Z,0.80
2023-04-11T10:55:48.388Z,1.00
2023-04-11T10:56:48.349Z,1.20
2023-04-11T10:57:48.326Z,0.90
2023-04-11T10:58:48.306Z,0.80
2023-04-11T10:59:48.353Z,0.80
2023-04-11T11:00:48.345Z,0.90
2023-04-11T11:02:48.465Z,0.70
2023-04-11T11:03:48.422Z,1.00
2023-04-11T11:04:48.361Z,0.90
2023-04-11T11:05:48.286Z,0.90
2023-04-11T11:06:56.808Z,0.80
2023-04-11T11:07:49.263Z,0.50
2023-04-11T11:08:48.192Z,0.90
2023-04-11T11:09:48.181Z,1.40
2023-04-11T11:10:48.194Z,0.90
2023-04-11T11:11:48.239Z,1.00
2023-04-11T11:12:48.210Z,0.80
2023-04-11T11:13:48.324Z,0.90
2023-04-11T11:14:48.163Z,0.80
2023-04-11T11:15:48.122Z,0.90
2023-04-11T11:16:48.166Z,0.80
2023-04-11T11:17:48.192Z,0.70
2023-04-11T11:18:48.117Z,0.70
2023-04-11T11:19:48.314Z,0.90
2023-04-11T11:20:48.111Z,0.70
2023-04-11T11:21:48.064Z,0.70
2023-04-11T11:22:48.053Z,0.60
2023-04-11T11:23:48.061Z,0.40
2023-04-11T11:24:48.035Z,0.70
2023-04-11T11:25:48.060Z,0.60
2023-04-11T11:26:48.023Z,0.60
2023-04-11T11:27:48.005Z,0.70
2023-04-11T11:28:48.063Z,0.70
2023-04-11T11:29:47.990Z,0.60
2023-04-11T11:30:47.991Z,0.60
2023-04-11T11:31:48.059Z,0.70
2023-04-11T11:32:47.956Z,0.60
2023-04-11T11:33:47.990Z,0.60
2023-04-11T11:34:47.930Z,0.50
2023-04-11T11:35:47.891Z,0.50
2023-04-11T11:36:47.909Z,0.60
2023-04-11T11:37:47.911Z,0.50
2023-04-11T11:38:47.863Z,0.70
2023-04-11T11:39:47.926Z,0.80
2023-04-11T11:40:47.856Z,1.00
2023-04-11T11:41:47.831Z,0.90
2023-04-11T11:42:47.829Z,0.90
2023-04-11T11:43:47.890Z,0.60
2023-04-11T11:44:47.850Z,0.60
2023-04-11T11:45:47.849Z,0.70
2023-04-11T11:46:47.793Z,0.80
2023-04-11T11:47:47.853Z,0.60
2023-04-11T11:48:47.779Z,0.50
2023-04-11T11:49:47.814Z,0.50
2023-04-11T11:50:47.748Z,0.40
2023-04-11T11:51:47.720Z,0.40
2023-04-11T11:52:47.711Z,0.50
2023-04-11T11:53:47.742Z,0.40
2023-04-11T11:54:47.717Z,0.50
2023-04-11T11:55:47.689Z,0.50
2023-04-11T11:56:47.673Z,0.40
2023-04-11T11:57:47.680Z,0.30
2023-04-11T11:58:47.661Z,0.20
2023-04-11T11:59:47.693Z,0.50
2023-04-11T12:00:47.657Z,0.30
2023-04-11T12:01:47.639Z,0.40
2023-04-11T12:02:47.780Z,0.30
2023-04-11T12:03:47.707Z,0.60
2023-04-11T12:04:47.851Z,0.60
2023-04-11T12:05:47.697Z,0.50
2023-04-11T12:06:47.573Z,0.70
2023-04-11T12:07:47.568Z,0.60
2023-04-11T12:08:47.641Z,0.50
2023-04-11T12:09:47.537Z,0.60
2023-04-11T12:10:47.555Z,0.70
2023-04-11T12:11:47.507Z,0.50
2023-04-11T12:12:53.342Z,0.90
2023-04-11T12:13:48.509Z,0.80
2023-04-11T12:14:47.464Z,0.70
2023-04-11T12:15:47.513Z,0.60
2023-04-11T12:16:47.480Z,0.60
2023-04-11T12:17:47.435Z,0.70
2023-04-11T12:18:47.430Z,0.60
2023-04-11T12:19:47.461Z,0.70
2023-04-11T12:20:47.429Z,0.70
2023-04-11T12:21:47.441Z,0.80
2023-04-11T12:22:47.397Z,0.70
2023-04-11T12:23:47.369Z,1.10
2023-04-11T12:24:47.380Z,0.70
2023-04-11T12:25:47.381Z,0.70
2023-04-11T12:27:05.788Z,0.70
2023-04-11T12:27:48.350Z,1.00
2023-04-11T12:28:47.340Z,0.80
2023-04-11T12:29:47.329Z,1.00
2023-04-11T12:30:47.351Z,0.90
2023-04-11T12:31:47.337Z,1.30
2023-04-11T12:32:47.309Z,1.00
2023-04-11T12:33:47.300Z,1.10
2023-04-11T12:34:47.326Z,1.10
2023-04-11T12:35:47.287Z,0.90
2023-04-11T12:36:47.238Z,1.10
2023-04-11T12:37:47.233Z,1.10
2023-04-11T12:38:47.245Z,1.10
2023-04-11T12:39:47.234Z,1.20
2023-04-11T12:40:47.214Z,1.20
2023-04-11T12:41:47.187Z,1.20
2023-04-11T12:42:56.398Z,1.00
2023-04-11T12:43:48.182Z,1.10
2023-04-11T12:44:47.145Z,1.00
2023-04-11T12:45:47.170Z,1.00
2023-04-11T12:46:47.134Z,1.00
2023-04-11T12:47:47.152Z,0.90
2023-04-11T12:48:47.095Z,1.30
2023-04-11T12:49:47.096Z,1.20
2023-04-11T12:50:47.132Z,1.10
2023-04-11T12:51:47.117Z,1.10
2023-04-11T12:52:47.061Z,1.30
2023-04-11T12:53:47.061Z,1.00
2023-04-11T12:54:47.061Z,1.20
2023-04-11T12:55:47.141Z,1.10
2023-04-11T12:56:47.000Z,1.30
2023-04-11T12:57:47.042Z,1.30
2023-04-11T12:58:46.985Z,1.30
2023-04-11T12:59:46.993Z,1.20
2023-04-11T13:00:47.003Z,1.50
2023-04-11T13:01:47.046Z,1.30
2023-04-11T13:02:47.258Z,1.50
2023-04-11T13:03:47.083Z,1.30
2023-04-11T13:04:47.148Z,1.50
2023-04-11T13:05:46.908Z,1.30
2023-04-11T13:06:46.911Z,1.50
2023-04-11T13:07:46.928Z,1.30
2023-04-11T13:08:46.888Z,1.30
2023-04-11T13:09:46.877Z,1.70
2023-04-11T13:10:46.860Z,1.60
2023-04-11T13:11:46.880Z,1.30
2023-04-11T13:12:46.846Z,1.80
2023-04-11T13:13:46.842Z,1.50
2023-04-11T13:14:46.874Z,1.50
2023-04-11T13:15:46.878Z,1.10
2023-04-11T13:16:46.858Z,1.40
2023-04-11T13:17:46.797Z,1.60
2023-04-11T13:18:46.797Z,1.10
2023-04-11T13:19:46.797Z,1.30